createdAt,value
2018-07-19T00:00:24.339Z,999.90
2018-07-19T00:01:24.338Z,999.90
2018-07-19T00:02:24.332Z,999.90
2018-07-19T00:03:24.331Z,999.90
2018-07-19T00:04:24.338Z,999.90
2018-07-19T00:05:24.334Z,999.90
2018-07-19T00:06:24.329Z,999.90
2018-07-19T00:07:24.327Z,4.10
2018-07-19T00:08:24.327Z,4.10
2018-07-19T00:09:24.324Z,4.10
2018-07-19T00:10:24.329Z,4.10
2018-07-19T00:11:24.326Z,4.10
2018-07-19T00:12:24.327Z,4.10
2018-07-19T00:13:24.324Z,4.10
2018-07-19T00:14:24.322Z,4.10
2018-07-19T00:15:24.318Z,4.10
2018-07-19T00:16:24.317Z,4.10
2018-07-19T00:17:24.316Z,4.20
2018-07-19T00:18:24.320Z,4.10
2018-07-19T00:19:24.318Z,4.10
2018-07-19T00:20:24.316Z,4.10
2018-07-19T00:21:24.313Z,4.20
2018-07-19T00:22:24.315Z,4.20
2018-07-19T00:23:24.315Z,4.20
2018-07-19T00:24:24.320Z,4.20
2018-07-19T00:25:24.310Z,4.20
2018-07-19T00:26:24.305Z,4.20
2018-07-19T00:27:24.305Z,4.20
2018-07-19T00:28:24.304Z,4.10
2018-07-19T00:29:24.300Z,4.20
2018-07-19T00:30:24.312Z,4.20
2018-07-19T00:31:24.304Z,4.20
2018-07-19T00:32:24.302Z,4.20
2018-07-19T00:33:24.305Z,4.10
2018-07-19T00:34:24.294Z,4.10
2018-07-19T00:35:24.293Z,4.10
2018-07-19T00:36:24.297Z,4.20
2018-07-19T00:37:24.294Z,4.20
2018-07-19T00:38:24.289Z,4.20
2018-07-19T00:39:24.288Z,999.90
2018-07-19T00:40:24.289Z,999.90
2018-07-19T00:41:24.286Z,999.90
2018-07-19T00:42:24.289Z,999.90
2018-07-19T00:43:24.289Z,999.90
2018-07-19T00:44:24.287Z,999.90
2018-07-19T00:45:24.286Z,999.90
2018-07-19T00:46:24.283Z,999.90
2018-07-19T00:47:24.278Z,999.90
2018-07-19T00:48:24.277Z,999.90
2018-07-19T00:49:24.273Z,999.90
2018-07-19T00:50:24.277Z,999.90
2018-07-19T00:51:24.277Z,999.90
2018-07-19T00:52:24.272Z,999.90
2018-07-19T00:53:24.267Z,999.90
2018-07-19T00:54:24.271Z,4.10
2018-07-19T00:55:24.269Z,4.10
2018-07-19T00:56:24.269Z,4.10
2018-07-19T00:57:24.266Z,4.10
2018-07-19T00:58:24.261Z,4.10
2018-07-19T00:59:24.258Z,4.10
2018-07-19T01:00:24.258Z,4.10
2018-07-19T01:01:24.254Z,4.10
2018-07-19T01:02:24.259Z,4.10
2018-07-19T01:03:24.257Z,4.10
2018-07-19T01:04:24.255Z,4.10
2018-07-19T01:05:24.253Z,4.10
2018-07-19T01:06:24.247Z,4.10
2018-07-19T01:07:24.245Z,4.10
2018-07-19T01:08:24.248Z,4.10
2018-07-19T01:09:24.246Z,4.10
2018-07-19T01:10:24.240Z,4.10
2018-07-19T01:11:24.240Z,4.10
2018-07-19T01:12:24.239Z,4.10
2018-07-19T01:13:24.237Z,4.10
2018-07-19T01:14:24.241Z,4.10
2018-07-19T01:15:24.237Z,4.10
2018-07-19T01:16:24.235Z,4.10
2018-07-19T01:17:24.236Z,4.10
2018-07-19T01:18:24.227Z,4.10
2018-07-19T01:19:24.227Z,4.10
2018-07-19T01:20:24.225Z,4.10
2018-07-19T01:21:24.221Z,4.10
2018-07-19T01:22:24.229Z,4.10
2018-07-19T01:23:24.223Z,4.10
2018-07-19T01:24:24.221Z,4.10
2018-07-19T01:25:24.216Z,4.10
2018-07-19T01:26:24.218Z,4.10
2018-07-19T01:27:24.217Z,999.90
2018-07-19T01:28:24.218Z,999.90
2018-07-19T01:29:24.213Z,999.90
2018-07-19T01:30:24.206Z,999.90
2018-07-19T01:31:24.205Z,999.90
2018-07-19T01:32:24.208Z,999.90
2018-07-19T01:33:24.204Z,999.90
2018-07-19T01:34:24.200Z,999.90
2018-07-19T01:35:24.199Z,999.90
2018-07-19T01:36:24.196Z,999.90
2018-07-19T01:37:24.193Z,999.90
2018-07-19T01:38:24.199Z,999.90
2018-07-19T01:39:24.196Z,999.90
2018-07-19T01:40:24.192Z,999.90
2018-07-19T01:41:24.187Z,999.90
2018-07-19T01:42:24.190Z,999.90
2018-07-19T01:43:24.189Z,999.90
2018-07-19T01:44:24.186Z,4.10
2018-07-19T01:45:24.184Z,4.10
2018-07-19T01:46:24.181Z,4.10
2018-07-19T01:47:24.175Z,4.10
2018-07-19T01:48:24.174Z,4.20
2018-07-19T01:49:24.172Z,4.10
2018-07-19T01:50:24.176Z,4.10
2018-07-19T01:51:24.172Z,4.20
2018-07-19T01:52:24.173Z,4.10
2018-07-19T01:53:24.169Z,4.10
2018-07-19T01:54:24.162Z,4.10
2018-07-19T01:55:24.160Z,4.10
2018-07-19T01:56:24.164Z,4.10
2018-07-19T01:57:24.162Z,4.30
2018-07-19T01:58:24.155Z,5.30
2018-07-19T01:59:24.155Z,999.90
2018-07-19T02:00:24.156Z,999.90
2018-07-19T02:01:24.152Z,999.90
2018-07-19T02:02:24.157Z,999.90
2018-07-19T02:03:24.195Z,999.90
2018-07-19T02:04:24.152Z,999.90
2018-07-19T02:05:24.151Z,999.90
2018-07-19T02:06:24.140Z,999.90
2018-07-19T02:07:24.140Z,999.90
2018-07-19T02:08:24.137Z,999.90
2018-07-19T02:09:24.134Z,999.90
2018-07-19T02:10:24.138Z,7.50
2018-07-19T02:11:24.136Z,7.80
2018-07-19T02:12:24.129Z,999.90
2018-07-19T02:13:24.126Z,999.90
2018-07-19T02:14:24.131Z,999.90
2018-07-19T02:15:24.129Z,999.90
2018-07-19T02:16:24.127Z,999.90
2018-07-19T02:17:24.122Z,999.90
2018-07-19T02:18:24.118Z,999.90
2018-07-19T02:19:24.116Z,999.90
2018-07-19T02:20:24.114Z,999.90
2018-07-19T02:21:24.110Z,999.90
2018-07-19T02:22:24.114Z,999.90
2018-07-19T02:23:24.111Z,999.90
2018-07-19T02:24:24.111Z,999.90
2018-07-19T02:25:24.107Z,999.90
2018-07-19T02:26:24.100Z,999.90
2018-07-19T02:27:24.099Z,999.90
2018-07-19T02:28:24.103Z,999.90
2018-07-19T02:29:24.101Z,999.90
2018-07-19T02:30:24.096Z,999.90
2018-07-19T02:31:24.091Z,999.90
2018-07-19T02:32:24.089Z,999.90
2018-07-19T02:33:24.087Z,999.90
2018-07-19T02:34:24.088Z,999.90
2018-07-19T02:35:24.087Z,999.90
2018-07-19T02:36:24.085Z,999.90
2018-07-19T02:37:24.082Z,999.90
2018-07-19T02:38:24.077Z,999.90
2018-07-19T02:39:24.075Z,999.90
2018-07-19T02:40:24.073Z,999.90
2018-07-19T02:41:24.070Z,999.90
2018-07-19T02:42:24.071Z,999.90
2018-07-19T02:43:24.069Z,999.90
2018-07-19T02:44:24.063Z,999.90
2018-07-19T02:45:24.060Z,999.90
2018-07-19T02:46:24.063Z,999.90
2018-07-19T02:47:24.061Z,999.90
2018-07-19T02:48:24.060Z,999.90
2018-07-19T02:49:24.057Z,999.90
2018-07-19T02:50:24.050Z,999.90
2018-07-19T02:51:24.048Z,999.90
2018-07-19T02:52:24.048Z,999.90
2018-07-19T02:53:24.047Z,999.90
2018-07-19T02:54:24.049Z,999.90
2018-07-19T02:55:24.046Z,999.90
2018-07-19T02:56:24.043Z,999.90
2018-07-19T02:57:24.040Z,999.90
2018-07-19T02:58:24.034Z,999.90
2018-07-19T02:59:24.032Z,999.90
2018-07-19T03:00:24.036Z,999.90
2018-07-19T03:01:24.032Z,999.90
2018-07-19T03:02:24.029Z,999.90
2018-07-19T03:03:24.025Z,999.90
2018-07-19T03:04:24.024Z,999.90
2018-07-19T03:05:24.020Z,999.90
2018-07-19T03:06:24.041Z,999.90
2018-07-19T03:07:24.021Z,999.90
2018-07-19T03:08:24.021Z,999.90
2018-07-19T03:09:24.018Z,999.90
2018-07-19T03:10:24.011Z,999.90
2018-07-19T03:11:24.009Z,999.90
2018-07-19T03:12:24.007Z,999.90
2018-07-19T03:13:24.005Z,999.90
2018-07-19T03:14:24.008Z,999.90
2018-07-19T03:15:24.008Z,999.90
2018-07-19T03:16:23.999Z,999.90
2018-07-19T03:17:23.997Z,999.90
2018-07-19T03:18:23.998Z,999.90
2018-07-19T03:19:23.997Z,999.90
2018-07-19T03:20:23.996Z,14.60
2018-07-19T03:21:23.993Z,999.90
2018-07-19T03:22:23.986Z,999.90
2018-07-19T03:23:23.984Z,999.90
2018-07-19T03:24:23.983Z,999.90
2018-07-19T03:25:23.980Z,999.90
2018-07-19T03:26:23.983Z,112.90
2018-07-19T03:27:23.981Z,999.90
2018-07-19T03:28:23.980Z,178.80
2018-07-19T03:29:23.975Z,999.90
2018-07-19T03:30:23.973Z,305.60
2018-07-19T03:31:23.982Z,999.90
2018-07-19T03:32:23.971Z,229.60
2018-07-19T03:33:23.967Z,999.90
2018-07-19T03:34:23.965Z,331.10
2018-07-19T03:35:23.959Z,999.90
2018-07-19T03:36:23.957Z,999.90
2018-07-19T03:37:23.954Z,999.90
2018-07-19T03:38:23.957Z,999.90
2018-07-19T03:39:23.956Z,999.90
2018-07-19T03:40:23.952Z,999.90
2018-07-19T03:41:23.949Z,999.90
2018-07-19T03:42:23.943Z,309.10
2018-07-19T03:43:23.942Z,999.90
2018-07-19T03:44:23.940Z,516.80
2018-07-19T03:45:23.936Z,656.60
2018-07-19T03:46:23.940Z,683.40
2018-07-19T03:47:23.937Z,671.20
2018-07-19T03:48:23.931Z,758.60
2018-07-19T03:49:23.928Z,790.40
2018-07-19T03:50:23.932Z,982.00
2018-07-19T03:51:23.929Z,999.90
2018-07-19T03:52:23.925Z,999.90
2018-07-19T03:53:23.922Z,999.90
2018-07-19T03:54:23.918Z,999.90
2018-07-19T03:55:23.915Z,999.90
2018-07-19T03:56:23.913Z,999.90
2018-07-19T03:57:23.909Z,999.90
2018-07-19T03:58:23.911Z,999.90
2018-07-19T03:59:23.909Z,999.90
2018-07-19T04:00:23.908Z,999.90
2018-07-19T04:01:23.905Z,999.90
2018-07-19T04:02:23.901Z,877.80
2018-07-19T04:03:23.895Z,999.90
2018-07-19T04:04:23.899Z,999.90
2018-07-19T04:05:23.895Z,950.00
2018-07-19T04:06:23.889Z,999.90
2018-07-19T04:07:23.887Z,999.90
2018-07-19T04:08:23.884Z,999.90
2018-07-19T04:09:23.880Z,999.90
2018-07-19T04:10:23.884Z,969.20
2018-07-19T04:11:23.881Z,899.90
2018-07-19T04:12:23.879Z,646.80
2018-07-19T04:13:23.874Z,977.10
2018-07-19T04:14:23.869Z,999.90
2018-07-19T04:15:23.866Z,999.90
2018-07-19T04:16:23.866Z,664.60
2018-07-19T04:17:23.862Z,642.90
2018-07-19T04:18:23.865Z,759.20
2018-07-19T04:19:23.865Z,999.90
2018-07-19T04:20:23.857Z,683.80
2018-07-19T04:21:23.852Z,885.70
2018-07-19T04:22:23.855Z,999.90
2018-07-19T04:23:23.854Z,999.90
2018-07-19T04:24:23.854Z,956.50
2018-07-19T04:25:23.849Z,999.90
2018-07-19T04:26:23.841Z,999.90
2018-07-19T04:27:23.839Z,999.90
2018-07-19T04:28:23.838Z,999.90
2018-07-19T04:29:23.834Z,999.90
2018-07-19T04:30:23.837Z,927.10
2018-07-19T04:31:23.834Z,999.90
2018-07-19T04:32:23.836Z,931.80
2018-07-19T04:33:23.833Z,999.90
2018-07-19T04:34:23.825Z,853.40
2018-07-19T04:35:23.821Z,921.20
2018-07-19T04:36:23.825Z,563.10
2018-07-19T04:37:23.823Z,999.90
2018-07-19T04:38:23.819Z,679.20
2018-07-19T04:39:23.814Z,999.90
2018-07-19T04:40:23.812Z,260.90
2018-07-19T04:41:23.809Z,999.90
2018-07-19T04:42:23.812Z,999.90
2018-07-19T04:43:23.810Z,999.90
2018-07-19T04:44:23.810Z,999.90
2018-07-19T04:45:23.808Z,999.90
2018-07-19T04:46:23.800Z,810.10
2018-07-19T04:47:23.799Z,999.90
2018-07-19T04:48:23.821Z,999.90
2018-07-19T04:49:23.796Z,999.90
2018-07-19T04:50:23.797Z,999.90
2018-07-19T04:51:23.800Z,999.90
2018-07-19T04:52:23.791Z,999.90
2018-07-19T04:53:23.789Z,999.90
2018-07-19T04:54:23.792Z,999.90
2018-07-19T04:55:23.790Z,999.90
2018-07-19T04:56:23.790Z,999.90
2018-07-19T04:57:23.788Z,999.90
2018-07-19T04:58:23.783Z,999.90
2018-07-19T04:59:23.781Z,999.90
2018-07-19T05:00:23.781Z,999.90
2018-07-19T05:01:23.780Z,999.90
2018-07-19T05:02:23.783Z,999.90
2018-07-19T05:03:23.786Z,999.90
2018-07-19T05:04:23.782Z,999.90
2018-07-19T05:05:23.780Z,999.90
2018-07-19T05:06:23.777Z,999.90
2018-07-19T05:07:23.776Z,999.90
2018-07-19T05:08:23.781Z,999.90
2018-07-19T05:09:23.781Z,999.90
2018-07-19T05:10:23.776Z,999.90
2018-07-19T05:11:23.779Z,999.90
2018-07-19T05:12:23.779Z,999.90
2018-07-19T05:13:23.782Z,999.90
2018-07-19T05:14:23.785Z,999.90
2018-07-19T05:15:23.786Z,27.40
2018-07-19T05:16:23.788Z,16.00
2018-07-19T05:17:23.788Z,25.40
2018-07-19T05:18:23.785Z,154.50
2018-07-19T05:19:23.785Z,999.90
2018-07-19T05:20:23.786Z,442.60
2018-07-19T05:21:23.791Z,999.90
2018-07-19T05:22:23.793Z,999.90
2018-07-19T05:23:23.797Z,999.90
2018-07-19T05:24:23.793Z,999.90
2018-07-19T05:25:23.792Z,999.90
2018-07-19T05:26:23.798Z,999.90
2018-07-19T05:27:23.799Z,999.90
2018-07-19T05:28:23.803Z,999.90
2018-07-19T05:29:23.802Z,999.90
2018-07-19T05:30:23.800Z,999.90
2018-07-19T05:31:23.800Z,999.90
2018-07-19T05:32:23.803Z,999.90
2018-07-19T05:33:23.804Z,999.90
2018-07-19T05:34:23.810Z,999.90
2018-07-19T05:35:23.812Z,999.90
2018-07-19T05:36:23.811Z,999.90
2018-07-19T05:37:23.811Z,999.90
2018-07-19T05:38:23.810Z,999.90
2018-07-19T05:39:23.810Z,999.90
2018-07-19T05:40:23.846Z,999.90
2018-07-19T05:41:23.817Z,999.90
2018-07-19T05:42:23.845Z,999.90
2018-07-19T05:43:23.815Z,999.90
2018-07-19T05:44:23.818Z,999.90
2018-07-19T05:45:23.817Z,999.90
2018-07-19T05:46:23.825Z,999.90
2018-07-19T05:47:23.827Z,999.90
2018-07-19T05:48:23.828Z,22.50
2018-07-19T05:49:23.831Z,270.00
2018-07-19T05:50:23.825Z,20.30
2018-07-19T05:51:23.827Z,15.20
2018-07-19T05:52:23.829Z,14.40
2018-07-19T05:53:23.829Z,14.60
2018-07-19T05:54:23.836Z,14.90
2018-07-19T05:55:23.838Z,15.40
2018-07-19T05:56:23.836Z,14.50
2018-07-19T05:57:23.836Z,14.90
2018-07-19T05:58:23.843Z,14.80
2018-07-19T05:59:23.845Z,15.50
2018-07-19T06:00:23.850Z,16.70
2018-07-19T06:01:23.848Z,16.40
2018-07-19T06:02:23.846Z,15.70
2018-07-19T06:03:23.849Z,15.90
2018-07-19T06:04:23.851Z,15.50
2018-07-19T06:05:23.853Z,15.60
2018-07-19T06:06:23.861Z,15.70
2018-07-19T06:07:23.863Z,15.60
2018-07-19T06:08:23.866Z,15.30
2018-07-19T06:09:23.869Z,16.00
2018-07-19T06:10:23.865Z,16.00
2018-07-19T06:11:23.866Z,15.90
2018-07-19T06:12:23.874Z,15.80
2018-07-19T06:13:23.875Z,15.80
2018-07-19T06:14:23.873Z,15.90
2018-07-19T06:15:23.877Z,82.70
2018-07-19T06:16:23.880Z,999.90
2018-07-19T06:17:23.885Z,999.90
2018-07-19T06:18:23.890Z,999.90
2018-07-19T06:19:23.892Z,999.90
2018-07-19T06:20:23.896Z,869.30
2018-07-19T06:21:23.897Z,999.90
2018-07-19T06:22:23.896Z,999.90
2018-07-19T06:23:23.899Z,999.90
2018-07-19T06:24:23.903Z,999.90
2018-07-19T06:25:23.904Z,999.90
2018-07-19T06:26:23.912Z,999.90
2018-07-19T06:27:23.917Z,999.90
2018-07-19T06:28:23.925Z,999.90
2018-07-19T06:29:23.915Z,5.40
2018-07-19T06:30:23.924Z,999.90
2018-07-19T06:31:23.927Z,999.90
2018-07-19T06:32:23.930Z,999.90
2018-07-19T06:33:23.933Z,999.90
2018-07-19T06:34:23.930Z,999.90
2018-07-19T06:35:23.933Z,999.90
2018-07-19T06:36:23.936Z,999.90
2018-07-19T06:37:23.937Z,999.90
2018-07-19T06:38:23.945Z,999.90
2018-07-19T06:39:23.951Z,999.90
2018-07-19T06:40:23.951Z,999.90
2018-07-19T06:41:23.953Z,999.90
2018-07-19T06:42:23.952Z,999.90
2018-07-19T06:43:23.957Z,999.90
2018-07-19T06:44:23.966Z,999.90
2018-07-19T06:45:23.964Z,999.90
2018-07-19T06:46:23.963Z,999.90
2018-07-19T06:47:23.967Z,999.90
2018-07-19T06:48:23.970Z,999.90
2018-07-19T06:49:23.979Z,6.40
2018-07-19T06:50:23.984Z,17.20
2018-07-19T06:51:23.985Z,14.20
2018-07-19T06:52:23.990Z,14.50
2018-07-19T06:53:23.991Z,14.10
2018-07-19T06:54:23.992Z,13.90
2018-07-19T06:55:23.996Z,14.00
2018-07-19T06:56:24.000Z,14.50
2018-07-19T06:57:24.044Z,14.40
2018-07-19T06:58:24.014Z,14.40
2018-07-19T06:59:24.019Z,14.60
2018-07-19T07:00:24.019Z,14.50
2018-07-19T07:01:24.022Z,14.60
2018-07-19T07:02:24.034Z,14.90
2018-07-19T07:03:24.037Z,15.20
2018-07-19T07:04:24.042Z,14.80
2018-07-19T07:05:24.046Z,14.50
2018-07-19T07:06:24.047Z,14.20
2018-07-19T07:07:24.052Z,13.70
2018-07-19T07:08:24.058Z,13.60
2018-07-19T07:09:24.062Z,13.00
2018-07-19T07:10:24.074Z,12.50
2018-07-19T07:11:24.078Z,12.80
2018-07-19T07:12:24.086Z,12.70
2018-07-19T07:13:24.091Z,12.80
2018-07-19T07:14:24.093Z,12.70
2018-07-19T07:15:24.099Z,12.90
2018-07-19T07:16:24.111Z,12.50
2018-07-19T07:17:24.116Z,12.30
2018-07-19T07:18:24.118Z,12.70
2018-07-19T07:19:24.124Z,13.00
2018-07-19T07:20:24.131Z,12.00
2018-07-19T07:21:24.137Z,12.60
2018-07-19T07:22:24.148Z,13.90
2018-07-19T07:23:24.156Z,14.00
2018-07-19T07:24:24.162Z,14.20
2018-07-19T07:25:24.168Z,14.10
2018-07-19T07:26:24.171Z,13.80
2018-07-19T07:27:24.178Z,14.60
2018-07-19T07:28:24.264Z,14.80
2018-07-19T07:29:24.188Z,14.80
2018-07-19T07:30:24.199Z,14.80
2018-07-19T07:31:24.206Z,15.00
2018-07-19T07:32:24.208Z,14.70
2018-07-19T07:33:24.218Z,14.60
2018-07-19T07:34:24.224Z,14.40
2018-07-19T07:35:24.230Z,15.20
2018-07-19T07:36:24.234Z,14.60
2018-07-19T07:37:24.242Z,14.70
2018-07-19T07:38:24.243Z,14.60
2018-07-19T07:39:24.248Z,14.40
2018-07-19T07:40:24.254Z,14.50
2018-07-19T07:41:24.260Z,13.70
2018-07-19T07:42:24.271Z,13.70
2018-07-19T07:43:24.278Z,11.90
2018-07-19T07:44:24.285Z,12.50
2018-07-19T07:45:24.291Z,13.90
2018-07-19T07:46:24.295Z,13.70
2018-07-19T07:47:24.300Z,12.90
2018-07-19T07:48:24.315Z,13.70
2018-07-19T07:49:24.318Z,14.90
2018-07-19T07:50:24.320Z,14.60
2018-07-19T07:51:24.327Z,15.10
2018-07-19T07:52:24.334Z,14.70
2018-07-19T07:53:24.339Z,14.70
2018-07-19T07:54:24.352Z,14.60
2018-07-19T07:55:24.359Z,14.40
2018-07-19T07:56:24.366Z,13.60
2018-07-19T07:57:24.374Z,13.90
2018-07-19T07:58:24.374Z,13.40
2018-07-19T07:59:24.395Z,13.60
2018-07-19T08:00:24.438Z,13.80
2018-07-19T08:01:24.392Z,14.70
2018-07-19T08:02:24.403Z,14.40
2018-07-19T08:03:24.413Z,13.20
2018-07-19T08:04:24.412Z,13.20
2018-07-19T08:05:24.422Z,13.70
2018-07-19T08:06:24.431Z,13.80
2018-07-19T08:07:24.435Z,13.30
2018-07-19T08:08:24.442Z,13.30
2018-07-19T08:09:24.447Z,13.10
2018-07-19T08:10:24.448Z,13.00
2018-07-19T08:11:24.456Z,13.10
2018-07-19T08:12:24.461Z,13.30
2018-07-19T08:13:24.467Z,13.60
2018-07-19T08:14:24.479Z,13.50
2018-07-19T08:15:24.485Z,13.30
2018-07-19T08:16:24.490Z,13.40
2018-07-19T08:17:24.498Z,13.80
2018-07-19T08:18:24.497Z,13.60
2018-07-19T08:19:24.504Z,13.30
2018-07-19T08:20:24.518Z,13.40
2018-07-19T08:21:24.521Z,12.60
2018-07-19T08:22:24.523Z,13.10
2018-07-19T08:23:24.529Z,13.30
2018-07-19T08:24:24.536Z,13.50
2018-07-19T08:25:24.542Z,12.90
2018-07-19T08:26:24.564Z,13.20
2018-07-19T08:27:24.559Z,13.30
2018-07-19T08:28:24.565Z,13.50
2018-07-19T08:29:24.571Z,13.40
2018-07-19T08:30:24.572Z,13.20
2018-07-19T08:31:24.578Z,12.60
2018-07-19T08:32:24.597Z,10.70
2018-07-19T08:33:24.590Z,11.80
2018-07-19T08:34:24.607Z,11.40
2018-07-19T08:35:24.610Z,11.30
2018-07-19T08:36:24.614Z,10.90
2018-07-19T08:37:24.620Z,10.00
2018-07-19T08:38:24.632Z,9.30
2018-07-19T08:39:24.641Z,9.00
2018-07-19T08:40:24.651Z,10.30
2018-07-19T08:41:24.659Z,10.50
2018-07-19T08:42:24.666Z,10.20
2018-07-19T08:43:24.673Z,9.60
2018-07-19T08:44:24.682Z,9.10
2018-07-19T08:45:24.691Z,9.40
2018-07-19T08:46:24.708Z,9.80
2018-07-19T08:47:24.727Z,9.80
2018-07-19T08:48:24.728Z,9.50
2018-07-19T08:49:24.738Z,10.00
2018-07-19T08:50:24.745Z,9.20
2018-07-19T08:51:24.757Z,9.40
2018-07-19T08:52:24.773Z,9.30
2018-07-19T08:53:24.783Z,9.10
2018-07-19T08:54:24.789Z,9.20
2018-07-19T08:55:24.801Z,9.80
2018-07-19T08:56:24.847Z,9.20
2018-07-19T08:57:24.824Z,9.60
2018-07-19T08:58:24.840Z,9.00
2018-07-19T08:59:24.853Z,8.20
2018-07-19T09:00:24.863Z,8.00
2018-07-19T09:01:24.880Z,7.80
2018-07-19T09:02:24.930Z,7.10
2018-07-19T09:03:24.896Z,7.50
2018-07-19T09:04:24.911Z,7.40
2018-07-19T09:05:24.921Z,7.30
2018-07-19T09:06:24.941Z,7.80
2018-07-19T09:07:24.954Z,7.20
2018-07-19T09:08:24.965Z,7.80
2018-07-19T09:09:24.977Z,6.90
2018-07-19T09:10:24.995Z,7.50
2018-07-19T09:11:25.010Z,7.00
2018-07-19T09:12:25.024Z,7.30
2018-07-19T09:13:25.038Z,7.30
2018-07-19T09:14:25.060Z,7.70
2018-07-19T09:15:25.063Z,7.30
2018-07-19T09:16:25.077Z,7.30
2018-07-19T09:17:25.110Z,7.60
2018-07-19T09:18:25.109Z,7.00
2018-07-19T09:19:25.146Z,6.90
2018-07-19T09:20:25.145Z,7.20
2018-07-19T09:21:25.157Z,6.70
2018-07-19T09:22:25.167Z,6.70
2018-07-19T09:23:25.181Z,6.80
2018-07-19T09:24:25.201Z,6.70
2018-07-19T09:25:25.215Z,6.60
2018-07-19T09:26:25.226Z,7.20
2018-07-19T09:27:25.243Z,6.70
2018-07-19T09:28:25.257Z,6.60
2018-07-19T09:29:25.272Z,6.50
2018-07-19T09:30:25.292Z,6.80
2018-07-19T09:31:25.308Z,6.00
2018-07-19T09:32:25.323Z,6.20
2018-07-19T09:33:25.340Z,6.70
2018-07-19T09:34:25.352Z,6.40
2018-07-19T09:35:25.367Z,6.30
2018-07-19T09:36:25.384Z,6.30
2018-07-19T09:37:25.399Z,6.30
2018-07-19T09:38:25.508Z,6.20
2018-07-19T09:39:25.473Z,6.30
2018-07-19T09:40:25.448Z,6.30
2018-07-19T09:41:25.464Z,6.30
2018-07-19T09:42:25.485Z,6.40
2018-07-19T09:43:25.525Z,6.30
2018-07-19T09:44:25.520Z,6.30
2018-07-19T09:45:25.535Z,6.10
2018-07-19T09:46:25.548Z,6.30
2018-07-19T09:47:25.568Z,6.40
2018-07-19T09:48:25.581Z,6.40
2018-07-19T09:49:25.598Z,6.50
2018-07-19T09:50:25.619Z,6.40
2018-07-19T09:51:25.636Z,6.80
2018-07-19T09:52:25.655Z,6.50
2018-07-19T09:53:25.672Z,6.80
2018-07-19T09:54:25.682Z,7.00
2018-07-19T09:55:25.703Z,6.80
2018-07-19T09:56:25.722Z,6.90
2018-07-19T09:57:25.739Z,7.40
2018-07-19T09:58:25.750Z,7.20
2018-07-19T09:59:25.799Z,7.10
2018-07-19T10:00:25.791Z,6.80
2018-07-19T10:01:25.801Z,6.10
2018-07-19T10:02:25.822Z,6.10
2018-07-19T10:03:25.839Z,6.20
2018-07-19T10:04:25.859Z,6.10
2018-07-19T10:05:25.875Z,6.00
2018-07-19T10:06:25.891Z,5.70
2018-07-19T10:07:25.905Z,5.90
2018-07-19T10:08:25.920Z,7.20
2018-07-19T10:09:25.935Z,7.40
2018-07-19T10:10:25.958Z,6.90
2018-07-19T10:11:25.975Z,7.00
2018-07-19T10:12:25.986Z,6.90
2018-07-19T10:13:26.011Z,5.90
2018-07-19T10:14:26.024Z,6.20
2018-07-19T10:15:26.072Z,5.80
2018-07-19T10:16:26.059Z,5.90
2018-07-19T10:17:26.135Z,5.80
2018-07-19T10:18:26.087Z,5.60
2018-07-19T10:19:26.102Z,5.40
2018-07-19T10:20:26.118Z,5.70
2018-07-19T10:21:26.135Z,5.40
2018-07-19T10:22:26.157Z,5.40
2018-07-19T10:23:26.175Z,5.70
2018-07-19T10:24:26.208Z,5.70
2018-07-19T10:25:26.204Z,6.00
2018-07-19T10:26:26.218Z,6.00
2018-07-19T10:27:26.235Z,6.20
2018-07-19T10:28:26.256Z,7.10
2018-07-19T10:29:26.272Z,7.20
2018-07-19T10:30:26.284Z,7.20
2018-07-19T10:31:26.300Z,7.70
2018-07-19T10:32:26.392Z,7.40
2018-07-19T10:33:26.335Z,7.20
2018-07-19T10:34:26.446Z,7.50
2018-07-19T10:35:26.373Z,6.90
2018-07-19T10:36:26.389Z,7.20
2018-07-19T10:37:26.407Z,7.20
2018-07-19T10:38:26.465Z,6.90
2018-07-19T10:39:26.435Z,6.90
2018-07-19T10:40:26.455Z,6.90
2018-07-19T10:41:26.471Z,7.20
2018-07-19T10:42:26.491Z,7.30
2018-07-19T10:43:26.506Z,7.30
2018-07-19T10:44:26.525Z,7.50
2018-07-19T10:45:26.540Z,7.50
2018-07-19T10:46:26.557Z,7.60
2018-07-19T10:47:26.573Z,7.30
2018-07-19T10:48:26.592Z,7.40
2018-07-19T10:49:26.607Z,7.80
2018-07-19T10:50:26.619Z,7.90
2018-07-19T10:51:26.635Z,8.40
2018-07-19T10:52:26.652Z,8.10
2018-07-19T10:53:26.668Z,8.00
2018-07-19T10:54:26.690Z,8.30
2018-07-19T10:55:26.707Z,8.60
2018-07-19T10:56:26.723Z,8.70
2018-07-19T10:57:26.784Z,8.90
2018-07-19T10:58:26.752Z,8.70
2018-07-19T10:59:26.766Z,9.20
2018-07-19T11:00:26.786Z,7.70
2018-07-19T11:01:26.803Z,7.30
2018-07-19T11:02:26.814Z,7.60
2018-07-19T11:03:26.830Z,7.10
2018-07-19T11:04:26.850Z,7.10
2018-07-19T11:05:26.863Z,7.00
2018-07-19T11:06:26.883Z,7.40
2018-07-19T11:07:26.900Z,7.70
2018-07-19T11:08:26.914Z,8.60
2018-07-19T11:09:26.984Z,7.90
2018-07-19T11:10:26.945Z,6.90
2018-07-19T11:11:26.959Z,6.60
2018-07-19T11:12:26.976Z,6.70
2018-07-19T11:13:26.991Z,6.80
2018-07-19T11:14:27.016Z,6.80
2018-07-19T11:15:27.030Z,7.00
2018-07-19T11:16:27.059Z,8.80
2018-07-19T11:17:27.056Z,9.20
2018-07-19T11:18:27.078Z,9.80
2018-07-19T11:19:27.094Z,9.70
2018-07-19T11:20:27.110Z,10.20
2018-07-19T11:21:27.123Z,10.10
2018-07-19T11:22:27.135Z,9.30
2018-07-19T11:23:27.149Z,8.70
2018-07-19T11:24:27.164Z,8.90
2018-07-19T11:25:27.178Z,9.30
2018-07-19T11:26:27.198Z,9.40
2018-07-19T11:27:27.211Z,9.10
2018-07-19T11:28:27.247Z,9.10
2018-07-19T11:29:27.238Z,9.20
2018-07-19T11:30:27.246Z,10.30
2018-07-19T11:31:27.260Z,9.90
2018-07-19T11:32:27.278Z,11.10
2018-07-19T11:33:27.289Z,10.70
2018-07-19T11:34:27.296Z,11.50
2018-07-19T11:35:27.309Z,11.60
2018-07-19T11:36:27.321Z,11.60
2018-07-19T11:37:27.331Z,11.20
2018-07-19T11:38:27.349Z,11.00
2018-07-19T11:39:27.382Z,11.90
2018-07-19T11:40:27.368Z,12.30
2018-07-19T11:41:27.384Z,11.70
2018-07-19T11:42:27.384Z,12.10
2018-07-19T11:43:27.394Z,12.20
2018-07-19T11:44:27.405Z,11.50
2018-07-19T11:45:27.422Z,12.00
2018-07-19T11:46:27.427Z,12.20
2018-07-19T11:47:27.437Z,12.10
2018-07-19T11:48:27.442Z,12.20
2018-07-19T11:49:27.450Z,12.80
2018-07-19T11:50:27.467Z,11.40
2018-07-19T11:51:27.471Z,11.60
2018-07-19T11:52:27.480Z,11.60
2018-07-19T11:53:27.487Z,11.20
2018-07-19T11:54:27.492Z,11.80
2018-07-19T11:55:27.499Z,11.90
2018-07-19T11:56:27.508Z,13.40
2018-07-19T11:57:27.518Z,12.00
2018-07-19T11:58:27.528Z,11.80
2018-07-19T11:59:27.535Z,11.60
2018-07-19T12:00:27.544Z,11.80
2018-07-19T12:01:27.572Z,11.50
2018-07-19T12:02:27.557Z,11.20
2018-07-19T12:03:27.565Z,10.90
2018-07-19T12:04:27.576Z,11.70
2018-07-19T12:05:27.581Z,11.40
2018-07-19T12:06:27.584Z,12.20
2018-07-19T12:07:27.593Z,14.20
2018-07-19T12:08:27.600Z,11.70
2018-07-19T12:09:27.606Z,11.70
2018-07-19T12:10:27.618Z,11.80
2018-07-19T12:11:27.626Z,11.70
2018-07-19T12:12:27.634Z,11.40
2018-07-19T12:13:27.641Z,11.70
2018-07-19T12:14:27.643Z,12.00
2018-07-19T12:15:27.651Z,11.60
2018-07-19T12:16:27.656Z,11.70
2018-07-19T12:17:27.663Z,11.70
2018-07-19T12:18:27.674Z,12.70
2018-07-19T12:19:27.683Z,12.00
2018-07-19T12:20:27.684Z,11.20
2018-07-19T12:21:27.691Z,11.20
2018-07-19T12:22:27.702Z,11.10
2018-07-19T12:23:27.709Z,11.50
2018-07-19T12:24:27.717Z,11.90
2018-07-19T12:25:27.724Z,11.40
2018-07-19T12:26:27.725Z,11.30
2018-07-19T12:27:27.732Z,11.40
2018-07-19T12:28:27.742Z,11.10
2018-07-19T12:29:27.745Z,11.70
2018-07-19T12:30:27.757Z,11.50
2018-07-19T12:31:27.763Z,11.70
2018-07-19T12:32:27.770Z,11.80
2018-07-19T12:33:27.777Z,12.40
2018-07-19T12:34:27.782Z,11.70
2018-07-19T12:35:27.788Z,12.00
2018-07-19T12:36:27.796Z,11.80
2018-07-19T12:37:27.803Z,12.10
2018-07-19T12:38:27.805Z,12.30
2018-07-19T12:39:27.811Z,12.70
2018-07-19T12:40:27.820Z,12.80
2018-07-19T12:41:27.824Z,12.40
2018-07-19T12:42:27.834Z,12.90
2018-07-19T12:43:27.842Z,11.70
2018-07-19T12:44:27.847Z,12.80
2018-07-19T12:45:27.855Z,12.20
2018-07-19T12:46:27.855Z,11.40
2018-07-19T12:47:27.862Z,11.50
2018-07-19T12:48:27.867Z,11.20
2018-07-19T12:49:27.873Z,11.70
2018-07-19T12:50:27.884Z,11.50
2018-07-19T12:51:27.891Z,11.80